Time;durP1;ratioP1;P1;durP2;ratioP2;P2;SDS_P1;SDS_P2;PMS_P1;PMS_P2;Temp;Humidity;BMP_temperature;BMP_pressure;BME280_temperature;BME280_humidity;BME280_pressure;Samples;Min_cycle;Max_cycle;Signal;HPM_P1;HPM_P2
2022/05/15 00:03:28;;;;;;;6.37;5.37;;;18.60;92.70;;;;;;6167184;28;20571;-63
2022/05/15 00:06:31;;;;;;;6.13;5.63;;;18.60;93.00;;;;;;6202299;28;20234;-63
2022/05/15 00:09:35;;;;;;;5.10;4.73;;;18.60;93.40;;;;;;6202090;28;20472;-63
2022/05/15 00:12:39;;;;;;;6.30;5.80;;;18.50;93.60;;;;;;6202386;28;20245;-63
2022/05/15 00:15:42;;;;;;;5.43;4.93;;;18.50;93.80;;;;;;6201950;28;20225;-63
2022/05/15 00:18:46;;;;;;;7.07;6.17;;;18.40;94.40;;;;;;6201832;28;20229;-63
2022/05/15 00:21:49;;;;;;;5.70;5.20;;;18.40;94.20;;;;;;6201830;28;20248;-63
2022/05/15 00:24:52;;;;;;;7.10;6.40;;;18.30;94.40;;;;;;6201791;28;20809;-63
2022/05/15 00:27:58;;;;;;;5.87;5.27;;;18.30;94.60;;;;;;6201825;28;20975;-62
2022/05/15 00:31:01;;;;;;;6.07;5.50;;;18.20;94.60;;;;;;6201674;28;20465;-62
2022/05/15 00:34:04;;;;;;;6.17;5.67;;;18.20;95.10;;;;;;6201845;28;20230;-62
2022/05/15 00:37:07;;;;;;;8.30;5.07;;;18.20;94.90;;;;;;6201454;28;20233;-63
2022/05/15 00:40:13;;;;;;;6.60;5.97;;;18.10;95.00;;;;;;6201665;28;20240;-63
2022/05/15 00:43:38;;;;;;;6.23;5.63;;;18.10;95.10;;;;;;6201049;28;20477;-63
2022/05/15 00:46:42;;;;;;;11.33;5.57;;;18.00;95.30;;;;;;6201370;28;20234;-62
2022/05/15 00:49:47;;;;;;;6.30;5.70;;;18.00;95.50;;;;;;6201409;28;20472;-62
2022/05/15 00:52:53;;;;;;;6.33;5.80;;;17.90;95.80;;;;;;6192694;28;20478;-62
2022/05/15 00:55:59;;;;;;;8.10;5.50;;;17.90;96.00;;;;;;6201289;28;20953;-62
2022/05/15 00:59:09;;;;;;;7.10;5.40;;;17.80;95.70;;;;;;6201045;28;20812;-62
2022/05/15 01:02:14;;;;;;;5.90;5.50;;;17.80;96.00;;;;;;6201001;28;20491;-62
2022/05/15 01:05:17;;;;;;;5.90;5.40;;;17.70;96.30;;;;;;6201124;28;20433;-61
2022/05/15 01:08:21;;;;;;;8.17;5.73;;;17.60;96.30;;;;;;6201305;28;20486;-64
2022/05/15 01:11:25;;;;;;;6.53;5.80;;;17.60;97.00;;;;;;6201277;28;20448;-63
2022/05/15 01:14:31;;;;;;;5.90;5.40;;;17.50;98.10;;;;;;6201247;28;20484;-62
2022/05/15 01:17:34;;;;;;;5.80;5.23;;;17.50;97.90;;;;;;6201227;28;20476;-63
2022/05/15 01:20:39;;;;;;;6.90;5.60;;;17.40;97.60;;;;;;6201202;28;20475;-63
2022/05/15 01:23:44;;;;;;;6.37;5.77;;;17.30;97.50;;;;;;6200915;28;20483;-63
2022/05/15 01:26:47;;;;;;;7.80;4.90;;;17.30;97.50;;;;;;6201001;28;20804;-62
2022/05/15 01:29:50;;;;;;;5.60;5.20;;;17.30;98.00;;;;;;6201332;28;20464;-62
2022/05/15 01:32:54;;;;;;;6.37;5.70;;;17.20;97.80;;;;;;6201356;28;20975;-63
2022/05/15 01:35:57;;;;;;;5.43;4.60;;;17.20;97.90;;;;;;6200815;28;20807;-62
2022/05/15 01:39:01;;;;;;;5.83;5.43;;;17.10;97.90;;;;;;6201295;28;20752;-62
2022/05/15 01:42:05;;;;;;;6.50;5.90;;;17.10;98.20;;;;;;6200218;28;20477;-63
2022/05/15 01:45:13;;;;;;;5.37;4.97;;;17.00;98.20;;;;;;6199900;28;20485;-63
2022/05/15 01:48:16;;;;;;;9.90;6.00;;;16.90;98.20;;;;;;6199036;28;20527;-63
2022/05/15 01:51:21;;;;;;;5.93;5.30;;;16.90;98.80;;;;;;6200842;28;20811;-63
2022/05/15 01:54:25;;;;;;;6.63;6.00;;;16.90;98.60;;;;;;6193174;28;20495;-63
2022/05/15 01:57:28;;;;;;;5.43;4.90;;;16.80;99.00;;;;;;6205257;28;20488;-62
2022/05/15 02:00:32;;;;;;;7.73;6.00;;;16.80;98.90;;;;;;6204745;28;20477;-62
2022/05/15 02:03:35;;;;;;;6.07;5.60;;;16.80;99.00;;;;;;6205036;28;20556;-63
2022/05/15 02:06:38;;;;;;;7.70;5.57;;;16.70;99.10;;;;;;6204891;28;20473;-64
2022/05/15 02:09:43;;;;;;;6.67;6.07;;;16.60;99.20;;;;;;6205054;28;20475;-62
2022/05/15 02:12:46;;;;;;;6.03;5.63;;;16.60;99.40;;;;;;6204981;28;20480;-63
2022/05/15 02:15:49;;;;;;;6.47;5.90;;;16.50;99.80;;;;;;6204570;28;20998;-63
2022/05/15 02:18:52;;;;;;;5.60;5.10;;;16.50;99.50;;;;;;6204761;28;21144;-63
2022/05/15 02:21:55;;;;;;;6.17;5.40;;;16.40;99.70;;;;;;6202825;28;20484;-63
2022/05/15 02:25:00;;;;;;;7.93;5.00;;;16.40;99.80;;;;;;6203081;28;20465;-63
2022/05/15 02:28:03;;;;;;;5.80;5.30;;;16.30;99.90;;;;;;6202644;28;21008;-64
2022/05/15 02:31:07;;;;;;;6.83;6.23;;;16.40;99.90;;;;;;6202755;28;20487;-63
2022/05/15 02:34:10;;;;;;;6.20;5.57;;;16.40;99.90;;;;;;6202467;28;20473;-63
2022/05/15 02:37:13;;;;;;;6.10;5.60;;;16.40;99.90;;;;;;6204122;28;20485;-62
2022/05/15 02:40:20;;;;;;;5.97;5.40;;;16.30;99.90;;;;;;6203387;28;20589;-64
2022/05/15 02:43:23;;;;;;;5.53;4.97;;;16.30;99.90;;;;;;6202449;28;20480;-65
2022/05/15 02:46:26;;;;;;;6.30;5.43;;;16.20;99.90;;;;;;6202859;28;20485;-64
2022/05/15 02:52:50;;;;;;;6.53;5.83;;;16.20;99.90;;;;;;6202832;28;20549;-63
2022/05/15 02:55:55;;;;;;;5.87;5.40;;;16.10;99.90;;;;;;6203027;28;20473;-63
2022/05/15 02:58:58;;;;;;;6.43;5.93;;;16.20;99.90;;;;;;6197168;28;20484;-63
2022/05/15 03:02:02;;;;;;;6.93;5.63;;;16.10;99.90;;;;;;6201936;28;20516;-63
2022/05/15 03:05:06;;;;;;;6.70;6.20;;;16.10;99.90;;;;;;6201941;28;20484;-64
2022/05/15 03:08:09;;;;;;;5.63;5.13;;;16.10;99.90;;;;;;6201864;28;20481;-63
2022/05/15 03:11:15;;;;;;;5.97;5.47;;;16.10;99.90;;;;;;6202281;28;20599;-63
2022/05/15 03:14:18;;;;;;;6.90;6.40;;;16.10;99.90;;;;;;6204333;28;20437;-63
2022/05/15 03:17:22;;;;;;;6.13;5.47;;;16.10;99.90;;;;;;6204934;28;20465;-63
2022/05/15 03:20:27;;;;;;;6.07;5.47;;;16.00;99.90;;;;;;6203418;28;20449;-64
2022/05/15 03:23:31;;;;;;;7.40;5.70;;;16.00;99.90;;;;;;6202542;28;20472;-64
2022/05/15 03:26:38;;;;;;;9.83;5.70;;;16.00;99.90;;;;;;6202240;28;20469;-63
2022/05/15 03:29:42;;;;;;;5.80;5.30;;;16.00;99.90;;;;;;6202957;28;20468;-64
2022/05/15 03:32:45;;;;;;;6.40;5.90;;;15.90;99.90;;;;;;6202618;28;20476;-63
2022/05/15 03:35:48;;;;;;;6.07;5.57;;;15.90;99.90;;;;;;6203099;28;20464;-63
2022/05/15 03:38:52;;;;;;;6.73;5.90;;;15.80;99.90;;;;;;6202217;28;20468;-63
2022/05/15 03:41:56;;;;;;;6.07;5.57;;;15.90;99.90;;;;;;6203020;28;20792;-63
2022/05/15 03:44:59;;;;;;;6.53;5.93;;;15.90;99.90;;;;;;6203014;28;20469;-63
2022/05/15 03:48:04;;;;;;;6.50;5.90;;;15.90;99.90;;;;;;6202865;28;20483;-63
2022/05/15 03:51:07;;;;;;;6.53;5.80;;;15.90;99.90;;;;;;6202324;28;20496;-63
2022/05/15 03:54:11;;;;;;;6.10;5.60;;;15.90;99.90;;;;;;6202484;28;20508;-63
2022/05/15 03:57:15;;;;;;;6.37;5.70;;;15.90;99.90;;;;;;6202514;28;20484;-63
2022/05/15 04:00:19;;;;;;;8.97;6.07;;;15.90;99.90;;;;;;6198203;28;20468;-63
2022/05/15 04:03:22;;;;;;;6.20;5.60;;;16.00;99.90;;;;;;6202313;28;20477;-63
2022/05/15 04:06:26;;;;;;;6.70;5.27;;;16.00;99.90;;;;;;6202150;28;20491;-64
2022/05/15 04:09:30;;;;;;;7.63;5.90;;;16.10;99.90;;;;;;6201513;28;20469;-64
2022/05/15 04:12:35;;;;;;;5.53;5.17;;;16.10;99.90;;;;;;6199736;28;20663;-64
2022/05/15 04:15:38;;;;;;;5.93;5.37;;;16.20;99.90;;;;;;6200295;28;20480;-65
2022/05/15 04:18:42;;;;;;;6.00;5.50;;;16.20;99.90;;;;;;6199723;28;20788;-64
2022/05/15 04:21:45;;;;;;;6.30;5.57;;;16.30;99.90;;;;;;6200432;28;20481;-64
2022/05/15 04:24:48;;;;;;;7.10;5.80;;;16.30;99.90;;;;;;6200453;28;20469;-63
2022/05/15 04:27:53;;;;;;;6.30;5.70;;;16.40;99.90;;;;;;6201228;28;20820;-64
2022/05/15 04:30:56;;;;;;;5.90;5.40;;;16.40;99.90;;;;;;6200608;28;20956;-63
2022/05/15 04:33:59;;;;;;;6.20;5.60;;;16.50;99.90;;;;;;6200250;28;20477;-63
2022/05/15 04:37:07;;;;;;;5.73;5.10;;;16.60;99.90;;;;;;6200014;28;20591;-63
2022/05/15 04:40:13;;;;;;;5.53;5.03;;;16.70;99.90;;;;;;6199847;28;20519;-63
2022/05/15 04:43:17;;;;;;;8.80;5.97;;;16.70;99.90;;;;;;6200236;28;20989;-65
2022/05/15 04:46:22;;;;;;;6.07;5.43;;;16.80;99.90;;;;;;6200562;28;20477;-64
2022/05/15 04:49:25;;;;;;;6.03;5.43;;;16.90;99.90;;;;;;6199726;28;20483;-64
2022/05/15 04:52:28;;;;;;;6.37;5.60;;;17.00;99.90;;;;;;6199681;28;20468;-64
2022/05/15 04:55:31;;;;;;;6.67;6.17;;;17.10;99.90;;;;;;6199708;28;20824;-64
2022/05/15 04:58:36;;;;;;;6.00;5.40;;;17.20;99.90;;;;;;6199642;28;20484;-63
2022/05/15 05:01:39;;;;;;;6.40;5.80;;;17.40;99.90;;;;;;6200261;28;20814;-63
2022/05/15 05:04:42;;;;;;;7.03;6.43;;;17.50;99.90;;;;;;6201125;28;20485;-64
2022/05/15 05:07:46;;;;;;;5.97;5.37;;;17.60;99.90;;;;;;6187469;28;20499;-64
2022/05/15 05:10:49;;;;;;;7.47;6.77;;;17.80;99.90;;;;;;6200689;28;20946;-65
2022/05/15 05:13:53;;;;;;;7.00;6.50;;;18.00;99.80;;;;;;6201109;28;20469;-65
2022/05/15 05:16:56;;;;;;;6.17;5.57;;;18.10;99.50;;;;;;6200535;28;20475;-64
2022/05/15 05:19:59;;;;;;;6.40;5.90;;;18.30;99.30;;;;;;6201674;28;20236;-64
2022/05/15 05:23:03;;;;;;;6.47;5.97;;;18.50;99.10;;;;;;6201097;28;20230;-65
2022/05/15 05:26:06;;;;;;;6.77;6.17;;;18.70;99.10;;;;;;6201204;28;20681;-64
2022/05/15 05:29:10;;;;;;;7.80;6.80;;;18.90;98.90;;;;;;6203094;28;20236;-64
2022/05/15 05:32:13;;;;;;;6.60;6.10;;;19.10;98.50;;;;;;6205979;28;20218;-64
2022/05/15 05:35:19;;;;;;;7.77;7.10;;;19.30;98.30;;;;;;6205757;28;20625;-64
2022/05/15 05:38:22;;;;;;;7.77;7.07;;;19.40;97.70;;;;;;6205771;28;20236;-64
2022/05/15 05:41:27;;;;;;;7.73;6.83;;;19.60;97.70;;;;;;6205716;28;20238;-64
2022/05/15 05:44:31;;;;;;;8.23;7.63;;;19.80;97.40;;;;;;6205263;28;20308;-63
2022/05/15 05:47:35;;;;;;;8.20;7.40;;;20.00;97.10;;;;;;6206155;28;20237;-63
2022/05/15 05:50:38;;;;;;;8.73;6.87;;;20.40;96.80;;;;;;6205724;28;20232;-64
2022/05/15 05:53:42;;;;;;;7.60;7.03;;;20.90;96.00;;;;;;6205399;28;20233;-63
2022/05/15 05:56:45;;;;;;;8.40;7.70;;;21.60;95.10;;;;;;6205191;28;20565;-64
2022/05/15 05:59:49;;;;;;;7.20;6.60;;;22.10;93.50;;;;;;6205243;28;20233;-64
2022/05/15 06:04:38;;;;;;;8.50;7.63;;;22.80;92.50;;;;;;6205211;28;20222;-66
2022/05/15 06:06:15;;;;;;;6.00;5.50;;;23.30;91.50;;;;;;6205111;28;20311;-65
2022/05/15 06:09:18;;;;;;;9.00;7.53;;;23.80;90.30;;;;;;6195618;28;20233;-65
2022/05/15 06:12:24;;;;;;;7.83;6.90;;;24.40;89.10;;;;;;6204960;28;20225;-65
2022/05/15 06:15:29;;;;;;;7.50;6.80;;;24.90;85.30;;;;;;6205069;28;20248;-64
2022/05/15 06:18:32;;;;;;;7.80;7.10;;;25.40;82.50;;;;;;6204962;28;20243;-61
2022/05/15 06:21:36;;;;;;;7.20;6.57;;;26.20;80.30;;;;;;6204673;28;20240;-61
2022/05/15 06:24:39;;;;;;;7.50;6.93;;;26.90;75.40;;;;;;6204732;28;20685;-63
2022/05/15 06:27:42;;;;;;;7.63;7.03;;;27.10;72.50;;;;;;6204447;28;20682;-63
2022/05/15 06:30:47;;;;;;;7.67;7.00;;;27.20;70.70;;;;;;6204703;28;20542;-63
2022/05/15 06:33:50;;;;;;;7.77;7.07;;;27.70;69.00;;;;;;6204545;28;20229;-64
2022/05/15 06:36:53;;;;;;;6.50;6.00;;;28.20;67.00;;;;;;6204270;28;20237;-64
2022/05/15 06:39:58;;;;;;;7.10;6.07;;;29.10;64.10;;;;;;6203903;28;20237;-64
2022/05/15 06:43:01;;;;;;;7.40;6.30;;;29.80;59.80;;;;;;6214531;28;20231;-65
2022/05/15 06:46:06;;;;;;;7.03;6.53;;;30.10;58.20;;;;;;6205546;28;20236;-64
2022/05/15 06:49:09;;;;;;;7.80;7.10;;;30.60;56.40;;;;;;6204279;28;20229;-65
2022/05/15 06:52:12;;;;;;;6.87;6.27;;;31.10;54.40;;;;;;6204443;28;20313;-64
2022/05/15 06:55:17;;;;;;;7.40;6.18;;;31.50;53.10;;;;;;6204109;28;20244;-64
2022/05/15 06:58:19;;;;;;;6.68;6.07;;;32.40;51.00;;;;;;6204426;28;20684;-64
2022/05/15 07:01:24;;;;;;;7.45;6.85;;;33.00;48.40;;;;;;6205002;28;20240;-64
2022/05/15 07:04:27;;;;;;;5.82;5.40;;;33.80;46.60;;;;;;6204508;28;20232;-64
2022/05/15 07:07:31;;;;;;;6.35;5.72;;;34.20;45.30;;;;;;6204132;28;20255;-65
2022/05/15 07:10:34;;;;;;;6.07;5.50;;;34.80;43.70;;;;;;6204308;28;20251;-64
2022/05/15 07:13:37;;;;;;;5.97;5.40;;;35.70;42.20;;;;;;6199896;28;20232;-65
2022/05/15 07:16:42;;;;;;;7.63;6.10;;;36.50;40.50;;;;;;6203408;28;20681;-65
2022/05/15 07:19:45;;;;;;;5.57;5.07;;;37.00;38.00;;;;;;6203936;28;20233;-65
2022/05/15 07:22:48;;;;;;;5.75;5.20;;;37.50;36.50;;;;;;6203234;28;20233;-64
2022/05/15 07:25:52;;;;;;;5.70;5.20;;;37.90;35.90;;;;;;6203252;28;20271;-65
2022/05/15 07:28:55;;;;;;;5.88;4.03;;;38.40;34.70;;;;;;6203098;28;20244;-64
2022/05/15 07:32:00;;;;;;;4.90;4.50;;;39.10;33.60;;;;;;6204182;28;20240;-65
2022/05/15 07:35:03;;;;;;;6.47;5.25;;;39.90;32.00;;;;;;6203588;28;20229;-64
2022/05/15 07:38:06;;;;;;;6.45;5.00;;;40.70;29.80;;;;;;6203121;28;20317;-64
2022/05/15 07:41:10;;;;;;;5.10;4.70;;;41.40;29.10;;;;;;6202439;28;20236;-64
2022/05/15 07:44:13;;;;;;;5.75;4.63;;;42.00;28.10;;;;;;6202826;28;20233;-65
2022/05/15 07:47:18;;;;;;;4.47;4.05;;;42.20;27.40;;;;;;6202752;28;20226;-64
2022/05/15 07:50:21;;;;;;;5.38;4.47;;;42.50;27.20;;;;;;6202919;28;20205;-65
2022/05/15 07:53:24;;;;;;;4.30;3.88;;;43.10;26.50;;;;;;6201755;28;20684;-65
2022/05/15 07:56:28;;;;;;;4.97;4.57;;;43.70;25.90;;;;;;6202753;28;20237;-64
2022/05/15 07:59:31;;;;;;;4.53;4.13;;;44.30;25.10;;;;;;6202430;28;20244;-65
2022/05/15 08:02:36;;;;;;;5.18;4.72;;;45.10;24.80;;;;;;6203028;28;20243;-65
2022/05/15 08:09:02;;;;;;;6.13;4.15;;;44.70;24.80;;;;;;6202771;28;20229;-65
2022/05/15 08:12:06;;;;;;;4.38;4.03;;;43.80;24.50;;;;;;6201967;28;20704;-66
2022/05/15 08:15:10;;;;;;;6.90;4.38;;;42.90;25.00;;;;;;6201950;28;20225;-65
2022/05/15 08:24:59;;;;;;;5.22;4.72;;;40.50;26.70;;;;;;6201891;28;20245;-64
2022/05/15 08:28:02;;;;;;;7.35;4.65;;;39.40;27.70;;;;;;6202926;28;20696;-65
2022/05/15 08:31:08;;;;;;;5.00;4.60;;;38.20;28.60;;;;;;6205674;28;20240;-64
2022/05/15 08:34:13;;;;;;;5.72;5.15;;;36.90;30.10;;;;;;6202329;28;20225;-66
2022/05/15 08:37:16;;;;;;;6.32;4.47;;;35.80;31.60;;;;;;6201744;28;20248;-65
2022/05/15 08:40:24;;;;;;;5.85;4.88;;;34.60;33.20;;;;;;6201567;28;20232;-65
2022/05/15 08:43:40;;;;;;;4.78;4.38;;;33.60;34.40;;;;;;6201627;28;20236;-65
2022/05/15 08:46:58;;;;;;;4.90;4.53;;;33.00;35.60;;;;;;6201214;28;20233;-65
2022/05/15 08:50:06;;;;;;;5.35;4.95;;;32.30;36.90;;;;;;6201553;28;20233;-65
2022/05/15 08:53:14;;;;;;;8.52;5.13;;;31.80;38.30;;;;;;6201477;28;20229;-66
2022/05/15 08:56:22;;;;;;;5.05;4.57;;;31.40;39.40;;;;;;6200661;28;20229;-66
2022/05/15 08:59:31;;;;;;;5.82;5.32;;;31.00;39.90;;;;;;6204282;28;20229;-65
2022/05/15 09:02:34;;;;;;;6.07;5.40;;;30.30;41.20;;;;;;6198972;28;20288;-66
2022/05/15 09:05:41;;;;;;;6.90;5.80;;;30.00;41.50;;;;;;6194903;28;20239;-66
2022/05/15 09:08:57;;;;;;;5.23;4.83;;;29.90;42.10;;;;;;6198133;28;20267;-65
2022/05/15 09:12:07;;;;;;;5.10;4.60;;;29.90;42.40;;;;;;6199694;28;20342;-65
2022/05/15 09:15:15;;;;;;;7.20;4.70;;;29.80;40.70;;;;;;6201129;28;20236;-65
2022/05/15 09:18:21;;;;;;;5.20;4.70;;;29.70;40.50;;;;;;6201009;28;20228;-65
2022/05/15 09:21:25;;;;;;;6.00;5.50;;;29.30;40.20;;;;;;6188179;28;20225;-65
2022/05/15 09:24:42;;;;;;;5.63;5.30;;;28.80;43.40;;;;;;6199718;28;20229;-65
2022/05/15 09:27:59;;;;;;;5.57;4.57;;;28.80;42.90;;;;;;6197877;28;20229;-65
2022/05/15 09:31:06;;;;;;;5.13;4.53;;;28.90;43.40;;;;;;6198321;28;20227;-65
2022/05/15 09:34:22;;;;;;;5.57;5.17;;;28.90;42.30;;;;;;6199749;28;20295;-65
2022/05/15 09:44:35;;;;;;;5.10;4.63;;;28.70;43.60;;;;;;6198795;28;20568;-65
2022/05/15 09:47:40;;;;;;;4.93;4.53;;;28.80;43.30;;;;;;6198338;28;20228;-64
2022/05/15 09:50:56;;;;;;;5.07;4.57;;;29.10;43.70;;;;;;6198918;28;20565;-66
2022/05/15 09:54:01;;;;;;;5.40;4.90;;;29.30;42.50;;;;;;6200139;28;20349;-65
2022/05/15 09:57:16;;;;;;;5.47;4.80;;;29.10;41.50;;;;;;6200092;28;20237;-65
2022/05/15 10:00:21;;;;;;;4.90;4.60;;;28.90;42.10;;;;;;6200398;28;20233;-65
2022/05/15 10:03:26;;;;;;;5.17;4.77;;;28.80;42.50;;;;;;6200577;28;20225;-65
2022/05/15 10:06:32;;;;;;;4.43;4.13;;;28.70;41.90;;;;;;6200812;28;20237;-65
2022/05/15 10:09:40;;;;;;;5.03;4.57;;;28.60;42.10;;;;;;6199813;28;20225;-65
2022/05/15 10:12:44;;;;;;;5.40;4.90;;;28.90;41.90;;;;;;6197400;28;20674;-65
2022/05/15 10:15:50;;;;;;;5.40;4.83;;;29.20;42.30;;;;;;6202407;28;20217;-64
2022/05/15 10:18:59;;;;;;;5.63;5.07;;;28.70;43.30;;;;;;6205425;28;20250;-64
2022/05/15 10:22:15;;;;;;;4.93;4.40;;;27.90;44.20;;;;;;6202415;28;20720;-63
2022/05/15 10:25:46;;;;;;;5.77;5.27;;;27.80;45.30;;;;;;6199042;28;20299;-62
2022/05/15 10:28:55;;;;;;;5.37;4.87;;;27.70;45.70;;;;;;6202097;28;20225;-65
2022/05/15 10:32:04;;;;;;;5.33;4.77;;;28.10;45.80;;;;;;6202549;28;20259;-65
2022/05/15 10:35:10;;;;;;;7.70;5.17;;;28.40;45.00;;;;;;6203828;28;20232;-66
2022/05/15 10:38:23;;;;;;;5.07;4.60;;;28.60;44.50;;;;;;6201593;28;20229;-66
2022/05/15 10:41:38;;;;;;;4.80;4.40;;;28.90;44.00;;;;;;6203826;28;20228;-63
2022/05/15 10:44:55;;;;;;;5.60;5.13;;;28.50;44.40;;;;;;6204802;28;20236;-62
2022/05/15 10:48:09;;;;;;;5.30;4.80;;;28.30;44.20;;;;;;6204712;28;20221;-62
2022/05/15 10:51:17;;;;;;;5.63;4.63;;;28.40;44.30;;;;;;6202205;28;20221;-61
2022/05/15 10:58:02;;;;;;;5.93;4.83;;;28.70;43.30;;;;;;6179731;28;20678;-62
2022/05/15 11:01:13;;;;;;;5.53;5.13;;;29.20;42.90;;;;;;6194894;28;20237;-62
2022/05/15 11:04:24;;;;;;;5.60;5.10;;;29.10;42.80;;;;;;6202903;28;20795;-63
2022/05/15 11:07:36;;;;;;;4.93;4.47;;;29.30;42.50;;;;;;6203413;28;20230;-63
2022/05/15 11:10:48;;;;;;;5.87;5.30;;;29.20;42.40;;;;;;6179409;28;20237;-61
2022/05/15 11:13:56;;;;;;;6.53;4.47;;;29.10;42.00;;;;;;6179402;28;20229;-62
2022/05/15 11:17:09;;;;;;;5.03;4.60;;;29.20;41.80;;;;;;6179005;28;20625;-62
2022/05/15 11:20:18;;;;;;;5.27;4.93;;;29.40;41.70;;;;;;6179121;28;20233;-62
2022/05/15 11:23:27;;;;;;;5.30;4.80;;;29.30;41.90;;;;;;6178965;28;20214;-62
2022/05/15 11:26:35;;;;;;;4.60;4.27;;;29.30;42.30;;;;;;6178203;28;20230;-61
2022/05/15 11:29:46;;;;;;;6.63;5.40;;;29.40;42.50;;;;;;6179225;28;20226;-64
2022/05/15 11:33:05;;;;;;;5.30;4.90;;;29.00;43.40;;;;;;6179101;28;20245;-63
2022/05/15 11:36:13;;;;;;;5.47;5.07;;;28.40;44.30;;;;;;6178827;28;20236;-63
2022/05/15 11:39:27;;;;;;;5.70;5.30;;;28.20;44.40;;;;;;6178852;28;20571;-62
2022/05/15 11:42:30;;;;;;;9.60;8.73;;;28.30;44.60;;;;;;6178558;28;20302;-62
2022/05/15 11:45:38;;;;;;;7.00;5.47;;;28.60;44.50;;;;;;6178223;28;20252;-62
2022/05/15 11:48:54;;;;;;;5.43;5.03;;;28.50;44.60;;;;;;6178620;28;20319;-62
2022/05/15 11:52:13;;;;;;;5.93;5.33;;;28.70;45.10;;;;;;6188458;28;20225;-61
2022/05/15 11:55:47;;;;;;;8.83;5.50;;;28.80;44.70;;;;;;6202450;28;20229;-62
2022/05/15 11:58:54;;;;;;;6.83;5.33;;;29.00;44.90;;;;;;6168256;28;20233;-63
2022/05/15 12:02:00;;;;;;;8.47;6.00;;;28.80;44.80;;;;;;6202492;28;20550;-63
2022/05/15 12:05:09;;;;;;;5.43;4.93;;;28.70;45.80;;;;;;6201884;28;20603;-63
2022/05/15 12:08:37;;;;;;;6.77;5.70;;;28.80;45.90;;;;;;6201978;28;20245;-63
2022/05/15 12:11:40;;;;;;;6.40;5.80;;;28.80;46.20;;;;;;6202474;28;20224;-66
2022/05/15 12:15:03;;;;;;;6.00;5.50;;;28.70;46.10;;;;;;6202733;28;20540;-64
2022/05/15 12:18:32;;;;;;;6.27;5.77;;;28.60;46.10;;;;;;6202311;28;20255;-64
2022/05/15 12:21:42;;;;;;;5.83;5.37;;;28.70;45.40;;;;;;6196816;28;20233;-62
2022/05/15 12:24:47;;;;;;;6.00;5.43;;;28.90;45.60;;;;;;6201882;28;20229;-62
2022/05/15 12:31:23;;;;;;;6.13;5.63;;;29.10;46.30;;;;;;6176658;28;20234;-60
2022/05/15 12:34:46;;;;;;;6.03;5.43;;;28.90;46.00;;;;;;6168538;28;20674;-63
2022/05/15 12:37:54;;;;;;;5.40;5.00;;;28.90;46.70;;;;;;6176334;28;20743;-63
2022/05/15 12:41:01;;;;;;;6.70;5.93;;;29.00;46.50;;;;;;6176938;28;20578;-62
2022/05/15 12:44:07;;;;;;;5.80;5.30;;;28.90;46.40;;;;;;6176971;28;20239;-60
2022/05/15 12:47:21;;;;;;;7.80;7.00;;;28.80;46.20;;;;;;6177400;28;20230;-62
2022/05/15 12:50:26;;;;;;;6.17;5.67;;;29.10;46.10;;;;;;6177959;28;20230;-63
2022/05/15 12:53:33;;;;;;;5.47;5.07;;;29.30;44.90;;;;;;6198632;28;20634;-63
2022/05/15 12:56:38;;;;;;;5.63;5.13;;;29.50;44.40;;;;;;6201499;28;20245;-62
2022/05/15 12:59:43;;;;;;;5.93;5.43;;;29.50;44.20;;;;;;6201140;28;20236;-63
2022/05/15 13:02:47;;;;;;;6.30;5.90;;;29.30;45.20;;;;;;6201188;28;20238;-63
2022/05/15 13:05:54;;;;;;;6.13;5.63;;;29.20;45.70;;;;;;6201776;28;20235;-63
2022/05/15 13:09:01;;;;;;;6.60;6.03;;;29.10;46.70;;;;;;6200965;28;20239;-62
2022/05/15 13:12:05;;;;;;;6.27;5.60;;;28.90;47.40;;;;;;6201270;28;20279;-62
2022/05/15 13:15:11;;;;;;;6.23;5.63;;;28.20;48.00;;;;;;6201066;28;20232;-64
2022/05/15 13:18:16;;;;;;;6.67;6.00;;;28.00;49.00;;;;;;6200933;28;20232;-64
2022/05/15 13:21:26;;;;;;;5.63;5.23;;;28.00;49.10;;;;;;6200800;28;20674;-61
2022/05/15 13:24:32;;;;;;;6.53;5.80;;;28.10;48.70;;;;;;6201039;28;20233;-61
2022/05/15 13:27:42;;;;;;;7.00;6.40;;;27.70;48.90;;;;;;6200770;28;20248;-61
2022/05/15 13:30:46;;;;;;;6.93;6.40;;;27.50;50.10;;;;;;6200449;28;20707;-62
2022/05/15 13:33:53;;;;;;;7.03;6.43;;;27.40;50.50;;;;;;6200643;28;20312;-61
2022/05/15 13:37:00;;;;;;;6.90;6.27;;;27.50;50.60;;;;;;6200435;28;20244;-62
2022/05/15 13:43:53;;;;;;;5.63;5.23;;;27.70;49.70;;;;;;6200715;28;20553;-60
2022/05/15 13:47:02;;;;;;;6.07;5.67;;;27.90;49.80;;;;;;6203267;28;20232;-62
2022/05/15 13:50:06;;;;;;;6.37;5.87;;;27.90;49.20;;;;;;6202125;28;20312;-62
2022/05/15 13:53:32;;;;;;;6.73;6.23;;;27.80;50.00;;;;;;6204757;28;20608;-61
2022/05/15 13:56:36;;;;;;;6.73;6.07;;;27.70;50.70;;;;;;6204919;28;20561;-62
2022/05/15 13:59:42;;;;;;;6.80;6.30;;;27.50;50.60;;;;;;6204608;28;20237;-62
2022/05/15 14:03:01;;;;;;;6.57;5.80;;;27.70;50.70;;;;;;6205145;28;20308;-61
2022/05/15 14:06:24;;;;;;;6.93;6.43;;;27.90;50.50;;;;;;6204757;28;20225;-62
2022/05/15 14:09:43;;;;;;;5.50;5.10;;;27.80;49.50;;;;;;6204783;28;20229;-62
2022/05/15 14:12:49;;;;;;;6.93;6.33;;;27.90;49.40;;;;;;6204498;28;20225;-61
2022/05/15 14:15:53;;;;;;;6.47;5.97;;;27.80;49.60;;;;;;6203325;28;20225;-62
2022/05/15 14:18:56;;;;;;;6.43;5.83;;;27.80;49.20;;;;;;6200750;28;20221;-61
2022/05/15 14:22:04;;;;;;;6.83;5.20;;;27.90;49.00;;;;;;6203629;28;20236;-61
2022/05/15 14:25:10;;;;;;;6.40;5.90;;;27.90;50.00;;;;;;6204380;28;20239;-63
2022/05/15 14:28:15;;;;;;;6.87;6.27;;;28.10;49.40;;;;;;6204294;28;20268;-62
2022/05/15 14:31:22;;;;;;;6.13;5.63;;;28.20;49.20;;;;;;6204475;28;20229;-63
2022/05/15 14:34:26;;;;;;;6.17;5.67;;;28.30;49.10;;;;;;6204340;28;20688;-63
2022/05/15 14:37:30;;;;;;;6.83;6.17;;;28.30;49.40;;;;;;6203924;28;20324;-62
2022/05/15 14:40:35;;;;;;;5.80;5.30;;;28.10;49.50;;;;;;6203123;28;20556;-63
2022/05/15 14:43:40;;;;;;;7.57;6.07;;;28.10;49.90;;;;;;6202260;28;20237;-61
2022/05/15 14:46:45;;;;;;;6.73;6.23;;;28.10;49.90;;;;;;6201356;28;20233;-61
2022/05/15 14:49:52;;;;;;;6.00;5.50;;;27.80;49.90;;;;;;6202227;28;20695;-62
2022/05/15 14:52:57;;;;;;;5.77;5.37;;;27.90;49.40;;;;;;6202213;28;20336;-62
2022/05/15 14:56:09;;;;;;;5.90;5.50;;;28.10;49.40;;;;;;6203082;28;20751;-62
2022/05/15 14:59:15;;;;;;;6.10;5.70;;;28.20;50.20;;;;;;6202878;28;20256;-61
2022/05/15 15:02:19;;;;;;;6.97;5.40;;;28.20;49.80;;;;;;6202619;28;20662;-63
2022/05/15 15:05:24;;;;;;;6.23;5.70;;;28.30;49.80;;;;;;6203800;28;20201;-62
2022/05/15 15:08:28;;;;;;;6.97;6.37;;;28.50;49.60;;;;;;6203166;28;20226;-62
2022/05/15 15:11:35;;;;;;;5.90;5.40;;;28.40;49.90;;;;;;6202953;28;20220;-62
2022/05/15 15:14:38;;;;;;;6.60;6.10;;;28.30;51.50;;;;;;6203616;28;20235;-62
2022/05/15 15:17:42;;;;;;;7.13;6.50;;;28.10;50.80;;;;;;6203844;28;20233;-61
2022/05/15 15:20:45;;;;;;;7.30;6.60;;;27.80;50.80;;;;;;6203409;28;20237;-61
2022/05/15 15:23:48;;;;;;;6.37;5.87;;;28.00;51.00;;;;;;6203352;28;20229;-62
2022/05/15 15:26:53;;;;;;;8.33;6.20;;;28.20;50.40;;;;;;6203092;28;20240;-62
2022/05/15 15:30:02;;;;;;;7.30;6.70;;;28.10;50.60;;;;;;6202992;28;20312;-62
2022/05/15 15:33:05;;;;;;;6.50;6.00;;;28.10;51.00;;;;;;6202868;28;20542;-61
2022/05/15 15:36:10;;;;;;;6.00;5.60;;;28.00;50.80;;;;;;6202961;28;20248;-62
2022/05/15 15:39:13;;;;;;;7.50;6.53;;;28.00;50.90;;;;;;6203119;28;20228;-62
2022/05/15 15:42:18;;;;;;;7.70;7.00;;;28.20;51.30;;;;;;6202460;28;20315;-62
2022/05/15 15:45:21;;;;;;;7.17;6.50;;;28.10;52.20;;;;;;6193559;28;20558;-62
2022/05/15 15:48:26;;;;;;;6.67;6.17;;;27.90;52.90;;;;;;6202529;28;20241;-62
2022/05/15 15:51:31;;;;;;;7.97;7.30;;;27.80;53.00;;;;;;6196683;28;20225;-62
2022/05/15 15:54:35;;;;;;;7.50;6.90;;;27.60;53.50;;;;;;6178226;28;20237;-62
2022/05/15 15:57:41;;;;;;;7.53;6.93;;;27.20;54.60;;;;;;6178425;28;20236;-61
2022/05/15 16:00:47;;;;;;;7.60;7.03;;;27.20;54.40;;;;;;6193386;28;20233;-62
2022/05/15 16:03:51;;;;;;;7.10;6.50;;;27.20;54.80;;;;;;6202836;28;20225;-62
2022/05/15 16:06:54;;;;;;;8.03;7.43;;;27.40;55.00;;;;;;6202713;28;20229;-61
2022/05/15 16:09:57;;;;;;;8.10;7.40;;;27.50;55.20;;;;;;6201930;28;20233;-62
2022/05/15 16:13:01;;;;;;;7.43;6.70;;;27.50;55.70;;;;;;6201988;28;20232;-62
2022/05/15 16:16:05;;;;;;;7.50;6.90;;;27.50;55.50;;;;;;6201937;28;20225;-61
2022/05/15 16:19:08;;;;;;;8.10;7.43;;;27.60;55.10;;;;;;6202174;28;20233;-63
2022/05/15 16:22:12;;;;;;;7.40;6.80;;;27.60;55.20;;;;;;6202099;28;20229;-62
2022/05/15 16:25:16;;;;;;;6.97;6.27;;;27.60;55.00;;;;;;6202050;28;20243;-62
2022/05/15 16:28:23;;;;;;;7.03;6.47;;;27.30;55.00;;;;;;6201715;28;20233;-62
2022/05/15 16:31:27;;;;;;;6.17;5.77;;;27.20;54.40;;;;;;6201953;28;20235;-63
2022/05/15 16:34:31;;;;;;;6.67;6.17;;;27.10;54.50;;;;;;6201561;28;20249;-63
2022/05/15 16:37:34;;;;;;;6.70;6.10;;;27.00;54.80;;;;;;6201125;28;20248;-62
2022/05/15 16:40:38;;;;;;;7.13;6.43;;;26.90;55.00;;;;;;6201748;28;20235;-62
2022/05/15 16:43:42;;;;;;;6.77;6.20;;;26.70;55.20;;;;;;6201673;28;20240;-62